createdAt,value
2022-10-06T00:02:14.101Z,96208.50
2022-10-06T00:04:40.709Z,96196.81
2022-10-06T00:07:07.256Z,96195.66
2022-10-06T00:09:33.722Z,96207.13
2022-10-06T00:12:02.698Z,96204.00
2022-10-06T00:14:29.356Z,96201.53
2022-10-06T00:16:55.959Z,96200.00
2022-10-06T00:19:22.656Z,96200.22
2022-10-06T00:21:49.155Z,96193.38
2022-10-06T00:24:16.082Z,96195.00
2022-10-06T00:26:42.623Z,96197.56
2022-10-06T00:29:09.275Z,96195.03
2022-10-06T00:31:35.826Z,96194.66
2022-10-06T00:34:02.339Z,96201.28
2022-10-06T00:36:28.825Z,96203.81
2022-10-06T00:38:55.319Z,96196.50
2022-10-06T00:41:21.812Z,96206.69
2022-10-06T00:43:49.906Z,96193.06
2022-10-06T00:46:20.323Z,96202.22
2022-10-06T00:48:51.134Z,96193.84
2022-10-06T00:51:17.882Z,96194.97
2022-10-06T00:53:44.437Z,96195.78
2022-10-06T00:56:11.912Z,96207.34
2022-10-06T00:58:38.446Z,96202.34
2022-10-06T01:01:05.074Z,96210.00
2022-10-06T01:03:34.351Z,96216.84
2022-10-06T01:06:01.192Z,96213.63
2022-10-06T01:08:29.200Z,96217.00
2022-10-06T01:10:55.903Z,96228.81
2022-10-06T01:13:22.537Z,96227.41
2022-10-06T01:16:00.591Z,96219.94
2022-10-06T01:18:28.327Z,96211.66
2022-10-06T01:21:02.258Z,96210.50
2022-10-06T01:23:31.486Z,96226.22
2022-10-06T01:25:58.694Z,96229.25
2022-10-06T01:28:25.925Z,96237.56
2022-10-06T01:30:53.882Z,96227.81
2022-10-06T01:33:21.910Z,96223.97
2022-10-06T01:35:51.952Z,96223.00
2022-10-06T01:38:20.276Z,96227.34
2022-10-06T01:40:46.843Z,96228.16
2022-10-06T01:43:14.065Z,96221.69
2022-10-06T01:45:40.747Z,96221.75
2022-10-06T01:48:07.628Z,96231.34
2022-10-06T01:50:34.509Z,96227.09
2022-10-06T01:53:01.042Z,96231.78
2022-10-06T01:55:27.878Z,96225.13
2022-10-06T01:57:54.379Z,96222.59
2022-10-06T02:00:20.864Z,96225.25
2022-10-06T02:02:47.374Z,96222.34
2022-10-06T02:05:14.207Z,96225.16
2022-10-06T02:07:40.717Z,96228.13
2022-10-06T02:10:07.685Z,96223.06
2022-10-06T02:12:34.321Z,96224.91
2022-10-06T02:15:00.962Z,96218.03
2022-10-06T02:17:28.275Z,96224.53
2022-10-06T02:19:54.995Z,96225.34
2022-10-06T02:22:21.655Z,96225.94
2022-10-06T02:24:48.136Z,96223.50
2022-10-06T02:27:15.193Z,96227.69
2022-10-06T02:29:41.702Z,96224.03
2022-10-06T02:32:08.409Z,96219.25
2022-10-06T02:34:34.963Z,96215.63
2022-10-06T02:37:01.527Z,96224.78
2022-10-06T02:39:27.981Z,96221.88
2022-10-06T02:41:54.788Z,96228.47
2022-10-06T02:44:21.455Z,96220.28
2022-10-06T02:46:48.522Z,96226.19
2022-10-06T02:49:15.109Z,96235.38
2022-10-06T02:51:41.687Z,96219.53
2022-10-06T02:54:08.158Z,96235.50
2022-10-06T02:56:34.634Z,96237.88
2022-10-06T02:59:01.091Z,96237.63
2022-10-06T03:01:29.025Z,96229.09
2022-10-06T03:03:55.978Z,96222.91
2022-10-06T03:06:27.508Z,96226.63
2022-10-06T03:09:01.708Z,96224.41
2022-10-06T03:11:33.686Z,96223.66
2022-10-06T03:14:00.415Z,96234.53
2022-10-06T03:16:32.576Z,96236.38
2022-10-06T03:19:00.543Z,96230.47
2022-10-06T03:21:32.866Z,96233.22
2022-10-06T03:23:59.884Z,96226.13
2022-10-06T03:26:31.096Z,96221.31
2022-10-06T03:28:58.075Z,96234.84
2022-10-06T03:31:25.082Z,96246.28
2022-10-06T03:33:52.763Z,96247.41
2022-10-06T03:36:20.621Z,96251.13
2022-10-06T03:38:47.684Z,96241.00
2022-10-06T03:41:19.295Z,96234.00
2022-10-06T03:43:47.849Z,96243.31
2022-10-06T03:46:18.659Z,96233.97
2022-10-06T03:48:46.211Z,96240.03
2022-10-06T03:51:14.006Z,96248.19
2022-10-06T03:53:43.979Z,96245.06
2022-10-06T03:56:16.354Z,96252.00
2022-10-06T03:58:49.203Z,96253.25
2022-10-06T04:01:25.008Z,96253.19
2022-10-06T04:03:55.000Z,96253.28
2022-10-06T04:06:21.776Z,96259.56
2022-10-06T04:08:49.560Z,96265.53
2022-10-06T04:11:17.368Z,96275.75
2022-10-06T04:13:44.776Z,96275.25
2022-10-06T04:16:19.679Z,96263.38
2022-10-06T04:18:49.597Z,96262.84
2022-10-06T04:21:16.299Z,96258.97
2022-10-06T04:23:43.066Z,96271.94
2022-10-06T04:26:15.170Z,96270.78
2022-10-06T04:28:43.259Z,96266.72
2022-10-06T04:31:15.534Z,96267.97
2022-10-06T04:33:43.807Z,96272.09
2022-10-06T04:36:14.438Z,96274.16
2022-10-06T04:38:40.983Z,96281.81
2022-10-06T04:41:13.043Z,96278.34
2022-10-06T04:43:40.791Z,96279.09
2022-10-06T04:46:30.330Z,96288.66
2022-10-06T04:48:55.819Z,96281.41
2022-10-06T04:51:24.521Z,96278.34
2022-10-06T04:53:51.060Z,96283.97
2022-10-06T04:56:29.422Z,96286.13
2022-10-06T04:58:56.972Z,96287.84
2022-10-06T05:01:32.138Z,96291.44
2022-10-06T05:04:00.176Z,96287.97
2022-10-06T05:06:37.400Z,96286.34
2022-10-06T05:09:08.913Z,96277.78
2022-10-06T05:11:35.603Z,96278.13
2022-10-06T05:14:02.193Z,96283.09
2022-10-06T05:16:29.912Z,96285.25
2022-10-06T05:18:56.993Z,96289.72
2022-10-06T05:21:26.578Z,96292.25
2022-10-06T05:23:53.418Z,96284.28
2022-10-06T05:26:22.249Z,96287.31
2022-10-06T05:28:49.063Z,96287.03
2022-10-06T05:31:22.864Z,96290.91
2022-10-06T05:33:49.671Z,96287.63
2022-10-06T05:36:22.219Z,96290.84
2022-10-06T05:38:49.160Z,96292.47
2022-10-06T05:41:20.680Z,96290.78
2022-10-06T05:43:47.894Z,96294.91
2022-10-06T05:46:16.823Z,96295.94
2022-10-06T05:48:53.669Z,96290.94
2022-10-06T05:51:21.398Z,96291.13
2022-10-06T05:53:48.071Z,96296.34
2022-10-06T05:56:15.726Z,96292.78
2022-10-06T05:58:45.077Z,96292.44
2022-10-06T06:01:19.567Z,96286.28
2022-10-06T06:03:49.650Z,96294.88
2022-10-06T06:06:18.720Z,96294.44
2022-10-06T06:08:45.534Z,96290.66
2022-10-06T06:11:12.664Z,96288.38
2022-10-06T06:13:39.499Z,96278.00
2022-10-06T06:16:08.077Z,96289.09
2022-10-06T06:18:37.097Z,96289.41
2022-10-06T06:21:06.616Z,96288.13
2022-10-06T06:23:45.141Z,96293.69
2022-10-06T06:26:23.081Z,96287.75
2022-10-06T06:28:50.531Z,96291.75
2022-10-06T06:31:24.975Z,96296.41
2022-10-06T06:33:53.671Z,96301.97
2022-10-06T06:36:25.513Z,96307.09
2022-10-06T06:38:54.113Z,96293.56
2022-10-06T06:41:21.449Z,96293.47
2022-10-06T06:43:48.587Z,96298.56
2022-10-06T06:46:16.977Z,96315.16
2022-10-06T06:48:43.781Z,96301.63
2022-10-06T06:51:10.979Z,96316.34
2022-10-06T06:53:38.673Z,96318.28
2022-10-06T06:56:06.010Z,96311.16
2022-10-06T06:58:32.996Z,96314.81
2022-10-06T07:01:12.830Z,96306.50
2022-10-06T07:03:56.673Z,96314.00
2022-10-06T07:06:28.197Z,96315.28
2022-10-06T07:08:56.083Z,96313.31
2022-10-06T07:11:25.423Z,96318.22
2022-10-06T07:13:55.887Z,96311.84
2022-10-06T07:16:22.936Z,96317.81
2022-10-06T07:18:49.415Z,96317.59
2022-10-06T07:21:15.923Z,96319.63
2022-10-06T07:23:42.632Z,96316.78
2022-10-06T07:26:10.302Z,96316.81
2022-10-06T07:28:37.934Z,96317.38
2022-10-06T07:31:04.575Z,96317.47
2022-10-06T07:33:31.088Z,96321.78
2022-10-06T07:35:57.611Z,96319.13
2022-10-06T07:38:24.279Z,96321.97
2022-10-06T07:41:14.899Z,96316.13
2022-10-06T07:43:42.062Z,96321.81
2022-10-06T07:46:12.200Z,96314.50
2022-10-06T07:48:38.778Z,96314.09
2022-10-06T07:51:15.876Z,96313.41
2022-10-06T07:53:42.853Z,96312.28
2022-10-06T07:56:09.347Z,96325.44
2022-10-06T07:58:35.826Z,96321.75
2022-10-06T08:01:11.255Z,96317.56
2022-10-06T08:03:39.004Z,96311.31
2022-10-06T08:06:05.960Z,96327.63
2022-10-06T08:08:33.793Z,96323.50
2022-10-06T08:11:01.619Z,96330.63
2022-10-06T08:13:28.563Z,96325.56
2022-10-06T08:15:55.115Z,96320.84
2022-10-06T08:18:44.289Z,96332.94
2022-10-06T08:21:10.376Z,96333.50
2022-10-06T08:23:37.230Z,96334.28
2022-10-06T08:26:03.712Z,96321.75
2022-10-06T08:28:30.203Z,96325.44
2022-10-06T08:30:56.838Z,96324.88
2022-10-06T08:33:23.355Z,96327.94
2022-10-06T08:35:49.851Z,96326.00
2022-10-06T08:38:16.285Z,96322.19
2022-10-06T08:40:43.767Z,96323.66
2022-10-06T08:43:16.324Z,96328.03
2022-10-06T08:45:44.321Z,96330.81
2022-10-06T08:48:13.734Z,96337.31
2022-10-06T08:51:01.141Z,96333.06
2022-10-06T08:53:41.455Z,96334.38
2022-10-06T08:56:12.912Z,96327.91
2022-10-06T08:58:55.375Z,96331.06
2022-10-06T09:01:24.208Z,96321.25
2022-10-06T09:04:04.041Z,96320.44
2022-10-06T09:06:36.611Z,96331.19
2022-10-06T09:09:19.548Z,96325.47
2022-10-06T09:12:06.020Z,96332.44
2022-10-06T09:14:38.033Z,96325.81
2022-10-06T09:17:09.676Z,96320.56
2022-10-06T09:19:46.240Z,96321.63
2022-10-06T09:22:19.291Z,96323.50
2022-10-06T09:24:47.586Z,96313.91
2022-10-06T09:27:19.756Z,96322.22
2022-10-06T09:29:46.643Z,96322.59
2022-10-06T09:32:13.382Z,96315.72
2022-10-06T09:34:48.796Z,96322.38
2022-10-06T09:37:15.590Z,96320.75
2022-10-06T09:39:47.626Z,96312.72
2022-10-06T09:42:26.805Z,96309.72
2022-10-06T09:45:06.131Z,96315.63
2022-10-06T09:47:44.718Z,96311.47
2022-10-06T09:50:17.893Z,96306.88
2022-10-06T09:52:59.413Z,96315.41
2022-10-06T09:55:31.203Z,96311.41
2022-10-06T09:57:57.913Z,96309.25
2022-10-06T10:00:30.526Z,96310.84
2022-10-06T10:03:01.769Z,96301.59
2022-10-06T10:05:32.009Z,96300.69
2022-10-06T10:08:20.883Z,96302.81
2022-10-06T10:10:48.569Z,96297.81
2022-10-06T10:13:25.051Z,96299.00
2022-10-06T10:15:52.586Z,96288.13
2022-10-06T10:18:19.507Z,96280.88
2022-10-06T10:20:52.063Z,96282.03
2022-10-06T10:23:26.025Z,96287.72
2022-10-06T10:26:19.798Z,96288.44
2022-10-06T10:28:58.714Z,96284.72
2022-10-06T10:31:42.678Z,96293.81
2022-10-06T10:34:47.774Z,96284.72
2022-10-06T10:37:15.819Z,96284.28
2022-10-06T10:39:57.208Z,96276.38
2022-10-06T10:42:29.675Z,96291.91
2022-10-06T10:45:01.045Z,96280.59
2022-10-06T10:47:30.984Z,96267.22
2022-10-06T10:50:08.206Z,96273.66
2022-10-06T10:52:39.691Z,96274.94
2022-10-06T10:55:28.783Z,96270.81
2022-10-06T10:57:58.468Z,96271.16
2022-10-06T11:00:25.917Z,96267.44
2022-10-06T11:02:53.359Z,96269.09
2022-10-06T11:05:43.134Z,96271.13
2022-10-06T11:08:24.940Z,96269.75
2022-10-06T11:10:59.421Z,96274.16
2022-10-06T11:13:32.086Z,96266.16
2022-10-06T11:18:58.647Z,96271.84
2022-10-06T11:21:36.337Z,96266.47
2022-10-06T11:24:37.489Z,96269.94
2022-10-06T11:27:09.955Z,96263.94
2022-10-06T11:29:57.109Z,96252.13
2022-10-06T11:32:38.969Z,96258.84
2022-10-06T11:35:25.267Z,96252.59
2022-10-06T11:37:57.841Z,96254.22
2022-10-06T11:40:51.814Z,96260.19
2022-10-06T11:43:27.155Z,96260.22
2022-10-06T11:46:32.078Z,96252.41
2022-10-06T11:49:29.758Z,96241.13
2022-10-06T11:51:59.695Z,96246.53
2022-10-06T11:54:42.449Z,96237.81
2022-10-06T11:57:30.333Z,96241.72
2022-10-06T12:00:15.985Z,96241.53
2022-10-06T12:02:44.192Z,96232.16
2022-10-06T12:05:35.744Z,96229.22
2022-10-06T12:08:11.495Z,96235.19
2022-10-06T12:10:48.241Z,96226.00
2022-10-06T12:19:31.970Z,96212.28
2022-10-06T12:22:25.729Z,96212.53
2022-10-06T12:25:01.618Z,96212.53
2022-10-06T12:27:36.150Z,96202.22
2022-10-06T12:30:22.084Z,96207.63
2022-10-06T12:32:49.974Z,96195.25
2022-10-06T12:35:22.820Z,96201.72
2022-10-06T12:37:54.253Z,96197.38
2022-10-06T12:40:39.668Z,96196.06
2022-10-06T12:43:15.154Z,96188.78
2022-10-06T12:45:52.619Z,96199.72
2022-10-06T12:48:36.643Z,96184.06
2022-10-06T12:51:29.300Z,96189.00
2022-10-06T12:54:01.545Z,96177.72
2022-10-06T12:56:34.326Z,96170.41
2022-10-06T12:59:20.007Z,96166.56
2022-10-06T13:01:48.806Z,96173.31
2022-10-06T13:04:49.174Z,96167.16
2022-10-06T13:07:20.251Z,96161.00
2022-10-06T13:09:48.617Z,96164.69
2022-10-06T13:12:28.114Z,96148.91
2022-10-06T13:15:17.840Z,96155.09
2022-10-06T13:17:57.516Z,96151.03
2022-10-06T13:20:31.254Z,96152.66
2022-10-06T13:23:05.665Z,96149.16
2022-10-06T13:25:41.160Z,96150.97
2022-10-06T13:28:29.016Z,96159.53
2022-10-06T13:30:56.786Z,96150.88
2022-10-06T13:33:24.456Z,96140.94
2022-10-06T13:35:52.952Z,96133.94
2022-10-06T13:38:20.399Z,96139.66
2022-10-06T13:41:04.944Z,96135.88
2022-10-06T13:43:34.141Z,96133.44
2022-10-06T13:46:10.205Z,96139.09
2022-10-06T13:48:41.750Z,96143.38
2022-10-06T13:51:15.561Z,96152.75
2022-10-06T13:53:45.042Z,96149.41
2022-10-06T13:56:36.162Z,96141.13
2022-10-06T13:59:21.811Z,96143.34
2022-10-06T14:01:48.590Z,96133.91
2022-10-06T14:04:17.418Z,96147.06
2022-10-06T14:06:52.837Z,96146.03
2022-10-06T14:09:37.464Z,96140.63
2022-10-06T14:12:07.276Z,96145.78
2022-10-06T14:14:33.983Z,96143.06
2022-10-06T14:17:00.523Z,96136.38
2022-10-06T14:19:33.627Z,96140.94
2022-10-06T14:22:00.828Z,96147.59
2022-10-06T14:24:27.317Z,96143.00
2022-10-06T14:26:55.183Z,96131.38
2022-10-06T14:29:22.320Z,96141.00
2022-10-06T14:31:49.384Z,96151.31
2022-10-06T14:34:18.256Z,96139.47
2022-10-06T14:36:49.056Z,96142.13
2022-10-06T14:39:15.868Z,96145.38
2022-10-06T14:41:42.636Z,96132.16
2022-10-06T14:44:10.405Z,96135.09
2022-10-06T14:46:38.347Z,96133.50
2022-10-06T14:49:06.131Z,96131.84
2022-10-06T14:51:36.570Z,96134.50
2022-10-06T14:54:06.967Z,96127.59
2022-10-06T14:56:35.272Z,96130.91
2022-10-06T14:59:03.757Z,96121.22
2022-10-06T15:01:31.585Z,96122.88
2022-10-06T15:04:00.470Z,96112.97
2022-10-06T15:06:27.565Z,96115.31
2022-10-06T15:08:56.331Z,96100.53
2022-10-06T15:11:24.632Z,96106.25
2022-10-06T15:13:51.447Z,96110.28
2022-10-06T15:16:18.224Z,96108.41
2022-10-06T15:18:44.784Z,96097.88
2022-10-06T15:21:11.440Z,96100.00
2022-10-06T15:23:38.675Z,96108.88
2022-10-06T15:26:05.637Z,96105.66
2022-10-06T15:28:33.653Z,96100.22
2022-10-06T15:31:00.460Z,96102.03
2022-10-06T15:33:27.883Z,96096.88
2022-10-06T15:36:15.103Z,96096.91
2022-10-06T15:38:41.852Z,96095.63
2022-10-06T15:41:08.334Z,96085.22
2022-10-06T15:43:34.820Z,96081.69
2022-10-06T15:46:02.892Z,96091.91
2022-10-06T15:48:30.587Z,96095.88
2022-10-06T15:50:57.089Z,96089.09
2022-10-06T15:53:23.598Z,96096.69
2022-10-06T15:55:50.043Z,96093.22
2022-10-06T15:58:16.525Z,96079.25
2022-10-06T16:00:42.998Z,96093.38
2022-10-06T16:03:09.612Z,96084.09
2022-10-06T16:05:36.113Z,96097.00
2022-10-06T16:08:02.582Z,96091.22
2022-10-06T16:10:29.034Z,96096.00
2022-10-06T16:12:56.049Z,96094.38
2022-10-06T16:15:22.508Z,96106.31
2022-10-06T16:17:48.982Z,96099.66
2022-10-06T16:20:15.961Z,96091.81
2022-10-06T16:22:42.578Z,96090.03
2022-10-06T16:25:09.234Z,96097.28
2022-10-06T16:27:35.892Z,96095.13
2022-10-06T16:30:02.370Z,96093.16
2022-10-06T16:32:28.919Z,96101.16
2022-10-06T16:34:55.519Z,96103.50
2022-10-06T16:37:21.997Z,96102.34
2022-10-06T16:39:48.590Z,96091.22
2022-10-06T16:42:15.088Z,96095.03
2022-10-06T16:44:41.599Z,96088.22
2022-10-06T16:47:08.482Z,96106.84
2022-10-06T16:49:35.108Z,96094.84
2022-10-06T16:52:01.575Z,96107.25
2022-10-06T16:54:28.161Z,96100.59
2022-10-06T16:56:54.673Z,96104.69
2022-10-06T16:59:23.246Z,96108.69
2022-10-06T17:01:50.238Z,96107.00
2022-10-06T17:04:18.816Z,96106.53
2022-10-06T17:06:47.635Z,96105.25
2022-10-06T17:09:18.816Z,96107.75
2022-10-06T17:11:47.847Z,96101.38
2022-10-06T17:14:18.525Z,96109.66
2022-10-06T17:16:46.508Z,96108.22
2022-10-06T17:19:14.989Z,96113.44
2022-10-06T17:21:46.592Z,96108.25
2022-10-06T17:24:14.527Z,96107.09
2022-10-06T17:26:42.845Z,96124.59
2022-10-06T17:29:15.320Z,96110.66
2022-10-06T17:31:42.978Z,96117.38
2022-10-06T17:34:11.885Z,96124.50
2022-10-06T17:36:42.898Z,96119.91
2022-10-06T17:39:12.019Z,96118.78
2022-10-06T17:41:40.488Z,96110.81
2022-10-06T17:44:10.305Z,96126.88
2022-10-06T17:46:38.133Z,96123.13
2022-10-06T17:49:07.254Z,96129.84
2022-10-06T17:51:35.162Z,96116.34
2022-10-06T17:54:04.628Z,96118.03
2022-10-06T17:56:32.730Z,96121.25
2022-10-06T17:59:00.047Z,96137.00
2022-10-06T18:01:29.937Z,96126.50
2022-10-06T18:03:56.356Z,96130.66
2022-10-06T18:06:24.622Z,96133.59
2022-10-06T18:08:51.113Z,96129.09
2022-10-06T18:11:19.336Z,96121.19
2022-10-06T18:13:46.439Z,96128.75
2022-10-06T18:16:18.133Z,96129.94
2022-10-06T18:18:46.888Z,96133.22
2022-10-06T18:21:14.162Z,96131.13
2022-10-06T18:23:40.841Z,96123.94
2022-10-06T18:26:07.328Z,96128.34
2022-10-06T18:28:33.867Z,96135.09
2022-10-06T18:31:00.689Z,96137.91
2022-10-06T18:36:15.505Z,96134.66
2022-10-06T18:38:44.195Z,96129.16
2022-10-06T18:41:15.985Z,96133.59
2022-10-06T18:43:43.158Z,96125.56
2022-10-06T18:46:11.516Z,96125.56
2022-10-06T18:48:39.791Z,96132.88
2022-10-06T18:51:06.696Z,96143.72
2022-10-06T18:53:33.187Z,96128.50
2022-10-06T18:55:59.664Z,96136.91
2022-10-06T18:58:26.144Z,96141.84
2022-10-06T19:00:52.695Z,96135.50
2022-10-06T19:03:19.235Z,96149.78
2022-10-06T19:05:52.446Z,96141.53
2022-10-06T19:08:18.920Z,96149.22
2022-10-06T19:10:45.469Z,96146.22
2022-10-06T19:13:14.806Z,96146.34
2022-10-06T19:15:50.160Z,96134.03
2022-10-06T19:18:16.695Z,96136.25
2022-10-06T19:20:50.444Z,96136.13
2022-10-06T19:23:16.994Z,96147.41
2022-10-06T19:25:43.627Z,96143.56
2022-10-06T19:28:10.122Z,96158.41
2022-10-06T19:30:36.715Z,96152.06
2022-10-06T19:33:03.202Z,96155.66
2022-10-06T19:35:29.981Z,96149.16
2022-10-06T19:37:56.494Z,96149.59
2022-10-06T19:43:03.715Z,96154.38
2022-10-06T19:45:30.345Z,96138.47
2022-10-06T19:47:56.826Z,96152.75
2022-10-06T19:50:23.286Z,96149.97
2022-10-06T19:52:49.749Z,96159.84
2022-10-06T19:55:16.226Z,96162.38
2022-10-06T19:57:46.955Z,96152.63
2022-10-06T20:00:14.075Z,96153.44
2022-10-06T20:02:43.129Z,96163.41
2022-10-06T20:05:12.191Z,96152.25
2022-10-06T20:07:39.174Z,96162.34
2022-10-06T20:10:06.107Z,96164.47
2022-10-06T20:12:35.479Z,96160.16
2022-10-06T20:15:02.011Z,96151.22
2022-10-06T20:17:29.739Z,96163.63
2022-10-06T20:19:57.778Z,96164.56
2022-10-06T20:22:25.303Z,96167.34
2022-10-06T20:24:51.961Z,96167.97
2022-10-06T20:27:18.455Z,96163.19
2022-10-06T20:29:44.943Z,96167.59
2022-10-06T20:32:11.534Z,96164.00
2022-10-06T20:34:37.997Z,96161.34
2022-10-06T20:37:05.156Z,96159.59
2022-10-06T20:39:33.011Z,96176.06
2022-10-06T20:42:00.220Z,96165.50
2022-10-06T20:44:26.868Z,96163.19
2022-10-06T20:46:53.578Z,96173.63
2022-10-06T20:49:20.364Z,96164.56
2022-10-06T20:51:48.690Z,96164.94
2022-10-06T20:54:16.298Z,96163.19
2022-10-06T20:56:43.100Z,96174.25
2022-10-06T20:59:13.897Z,96169.47
2022-10-06T21:01:40.699Z,96154.13
2022-10-06T21:04:07.691Z,96165.28
2022-10-06T21:06:34.212Z,96169.91
2022-10-06T21:09:00.714Z,96167.50
2022-10-06T21:11:27.204Z,96169.81
2022-10-06T21:13:53.643Z,96167.38
2022-10-06T21:16:24.111Z,96167.50
2022-10-06T21:18:50.973Z,96170.75
2022-10-06T21:21:17.991Z,96174.94
2022-10-06T21:23:46.578Z,96164.25
2022-10-06T21:26:18.651Z,96158.88
2022-10-06T21:28:45.526Z,96157.25
2022-10-06T21:31:14.434Z,96161.31
2022-10-06T21:33:42.602Z,96164.22
2022-10-06T21:36:20.236Z,96168.66
2022-10-06T21:38:54.374Z,96169.47
2022-10-06T21:41:23.329Z,96159.34
2022-10-06T21:44:00.461Z,96155.41
2022-10-06T21:46:30.489Z,96162.13
2022-10-06T21:48:57.633Z,96163.25
2022-10-06T21:51:24.209Z,96158.59
2022-10-06T21:53:51.867Z,96154.19
2022-10-06T21:56:18.915Z,96170.47
2022-10-06T21:58:53.362Z,96158.50
2022-10-06T22:01:28.307Z,96161.06
2022-10-06T22:03:56.727Z,96159.88
2022-10-06T22:06:23.665Z,96157.69
2022-10-06T22:08:50.677Z,96157.34
2022-10-06T22:11:19.692Z,96158.97
2022-10-06T22:13:50.002Z,96152.28
2022-10-06T22:16:19.008Z,96153.41
2022-10-06T22:18:46.447Z,96155.25
2022-10-06T22:21:26.657Z,96154.25
2022-10-06T22:24:08.167Z,96148.56
2022-10-06T22:26:36.844Z,96147.53
2022-10-06T22:29:04.237Z,96146.97
2022-10-06T22:31:30.852Z,96145.72
2022-10-06T22:33:59.072Z,96150.41
2022-10-06T22:36:26.604Z,96146.69
2022-10-06T22:38:53.911Z,96150.66
2022-10-06T22:41:20.942Z,96143.28
2022-10-06T22:43:47.694Z,96136.41
2022-10-06T22:46:14.697Z,96143.03
2022-10-06T22:48:41.429Z,96138.34
2022-10-06T22:51:07.896Z,96136.94
2022-10-06T22:53:34.791Z,96145.44
2022-10-06T22:56:01.845Z,96140.00
2022-10-06T22:58:28.591Z,96135.16
2022-10-06T23:00:55.176Z,96129.91
2022-10-06T23:03:21.729Z,96122.69
2022-10-06T23:05:59.251Z,96137.88
2022-10-06T23:08:30.040Z,96131.66
2022-10-06T23:11:21.309Z,96122.41
2022-10-06T23:13:47.868Z,96125.06
2022-10-06T23:16:16.885Z,96136.81
2022-10-06T23:18:44.599Z,96131.72
2022-10-06T23:21:13.696Z,96126.38
2022-10-06T23:23:40.149Z,96125.63
2022-10-06T23:26:09.261Z,96128.44
2022-10-06T23:28:36.121Z,96125.34
2022-10-06T23:31:04.927Z,96121.50
2022-10-06T23:33:32.273Z,96120.06
2022-10-06T23:36:00.219Z,96121.97
2022-10-06T23:38:27.365Z,96122.25
2022-10-06T23:40:54.244Z,96120.06
2022-10-06T23:43:21.159Z,96115.44
2022-10-06T23:45:47.963Z,96118.63
2022-10-06T23:48:14.871Z,96123.00
2022-10-06T23:50:41.555Z,96124.34
2022-10-06T23:53:08.640Z,96118.56
2022-10-06T23:55:35.116Z,96112.56
2022-10-06T23:58:01.625Z,96113.44
